Time;durP1;ratioP1;P1;durP2;ratioP2;P2;SDS_P1;SDS_P2;PMS_P1;PMS_P2;Temp;Humidity;BMP_temperature;BMP_pressure;BME280_temperature;BME280_humidity;BME280_pressure;Samples;Min_cycle;Max_cycle;Signal;HPM_P1;HPM_P2
2021/07/14 00:00:01;;;;;;;45.30;40.03;;;;;;;;;;5037140;28;20021;-62
2021/07/14 00:02:27;;;;;;;44.58;39.95;;;;;;;;;;5055150;28;20052;-63
2021/07/14 00:04:53;;;;;;;46.50;40.88;;;;;;;;;;5055104;28;20029;-60
2021/07/14 00:07:19;;;;;;;45.50;40.70;;;;;;;;;;5036763;28;20041;-60
2021/07/14 00:09:45;;;;;;;44.80;39.28;;;;;;;;;;5054962;28;20036;-60
2021/07/14 00:12:12;;;;;;;45.58;40.63;;;;;;;;;;5054722;28;20048;-60
2021/07/14 00:22:07;;;;;;;44.08;39.38;;;;;;;;;;4973556;28;20027;-60
2021/07/14 00:23:14;;;;;;;45.58;40.65;;;;;;;;;;5033202;28;20491;-60
2021/07/14 00:25:40;;;;;;;46.35;40.25;;;;;;;;;;5054479;28;20053;-60
2021/07/14 00:28:06;;;;;;;44.10;39.30;;;;;;;;;;5054607;28;20021;-63
2021/07/14 00:30:35;;;;;;;46.75;41.75;;;;;;;;;;5054078;28;20404;-63
2021/07/14 00:33:01;;;;;;;47.00;41.95;;;;;;;;;;5036771;28;20036;-62
2021/07/14 00:35:27;;;;;;;48.85;43.55;;;;;;;;;;5036030;28;20021;-60
2021/07/14 00:37:53;;;;;;;49.50;44.10;;;;;;;;;;5036649;28;20024;-58
2021/07/14 00:40:19;;;;;;;48.53;43.42;;;;;;;;;;5036373;28;20496;-60
2021/07/14 00:42:46;;;;;;;50.20;44.63;;;;;;;;;;5036483;28;20481;-60
2021/07/14 00:45:12;;;;;;;51.85;46.10;;;;;;;;;;5036136;28;20029;-61
2021/07/14 00:47:44;;;;;;;52.95;47.25;;;;;;;;;;5036651;28;20128;-60
2021/07/14 00:50:10;;;;;;;52.28;45.63;;;;;;;;;;5054206;28;20025;-60
2021/07/14 00:52:37;;;;;;;51.25;45.67;;;;;;;;;;5036256;28;20024;-59
2021/07/14 00:55:03;;;;;;;52.97;47.42;;;;;;;;;;5036037;28;20028;-59
2021/07/14 00:57:31;;;;;;;52.58;46.83;;;;;;;;;;5035792;28;20029;-62
2021/07/14 00:59:57;;;;;;;54.75;48.95;;;;;;;;;;5054189;28;20017;-61
2021/07/14 01:02:25;;;;;;;52.97;47.33;;;;;;;;;;5035840;28;20021;-58
2021/07/14 01:04:55;;;;;;;53.25;47.13;;;;;;;;;;5054083;28;20058;-57
2021/07/14 01:07:25;;;;;;;51.70;46.17;;;;;;;;;;5053542;28;20477;-62
2021/07/14 01:09:51;;;;;;;58.58;49.08;;;;;;;;;;5036065;28;20517;-57
2021/07/14 01:12:30;;;;;;;52.38;46.67;;;;;;;;;;5035817;28;20033;-58
2021/07/14 01:15:06;;;;;;;51.88;46.47;;;;;;;;;;5053488;28;20021;-62
2021/07/14 01:17:36;;;;;;;53.90;48.28;;;;;;;;;;5053670;28;20024;-62
2021/07/14 01:20:05;;;;;;;56.28;50.30;;;;;;;;;;5053619;28;20374;-62
2021/07/14 01:22:34;;;;;;;56.60;50.83;;;;;;;;;;5053610;28;20025;-57
2021/07/14 01:25:09;;;;;;;61.38;54.67;;;;;;;;;;5053551;28;20028;-60
2021/07/14 01:27:37;;;;;;;60.60;54.10;;;;;;;;;;5035608;28;20031;-62
2021/07/14 01:30:07;;;;;;;64.50;57.45;;;;;;;;;;5053466;28;20052;-63
2021/07/14 01:32:33;;;;;;;63.05;54.83;;;;;;;;;;5035129;28;20033;-62
2021/07/14 01:35:05;;;;;;;61.92;55.20;;;;;;;;;;5035340;28;20028;-62
2021/07/14 01:37:32;;;;;;;63.60;55.55;;;;;;;;;;5035234;28;20017;-62
2021/07/14 01:39:59;;;;;;;69.93;58.33;;;;;;;;;;5035384;28;20052;-62
2021/07/14 01:42:27;;;;;;;63.40;56.60;;;;;;;;;;5053222;28;20021;-62
2021/07/14 01:44:54;;;;;;;63.22;55.70;;;;;;;;;;5053387;28;20051;-62
2021/07/14 01:47:21;;;;;;;65.05;56.67;;;;;;;;;;5053064;28;20029;-60
2021/07/14 01:49:48;;;;;;;64.80;55.60;;;;;;;;;;5035452;28;20021;-61
2021/07/14 01:52:16;;;;;;;64.47;55.25;;;;;;;;;;5053416;28;20078;-62
2021/07/14 01:54:43;;;;;;;67.03;58.67;;;;;;;;;;5035461;28;20017;-61
2021/07/14 01:57:09;;;;;;;65.47;55.63;;;;;;;;;;5087913;22;20131;-63
2021/07/14 01:59:36;;;;;;;64.78;56.03;;;;;;;;;;5051864;28;20533;-62
2021/07/14 02:02:05;;;;;;;66.82;55.08;;;;;;;;;;5071186;28;20036;-62
2021/07/14 02:04:33;;;;;;;65.88;56.03;;;;;;;;;;5053741;28;20028;-62
2021/07/14 02:06:59;;;;;;;;;;;;;;;;;;5071493;28;20464;-62
2021/07/14 02:09:25;;;;;;;62.85;51.38;;;;;;;;;;5053443;28;19961;-63
2021/07/14 02:11:52;;;;;;;66.95;57.72;;;;;;;;;;5071290;28;20036;-60
2021/07/14 02:14:19;;;;;;;61.78;53.95;;;;;;;;;;5071085;28;20476;-63
2021/07/14 02:16:48;;;;;;;66.47;54.17;;;;;;;;;;5052889;28;20052;-62
2021/07/14 02:19:16;;;;;;;64.60;54.95;;;;;;;;;;5070979;28;20100;-62
2021/07/14 02:21:42;;;;;;;60.93;54.27;;;;;;;;;;5053055;28;20067;-61
2021/07/14 02:24:12;;;;;;;65.20;55.70;;;;;;;;;;5071169;28;20306;-63
2021/07/14 02:26:40;;;;;;;61.90;53.42;;;;;;;;;;5070689;28;20028;-62
2021/07/14 02:29:06;;;;;;;59.70;52.50;;;;;;;;;;5052976;28;20111;-63
2021/07/14 02:31:33;;;;;;;70.32;56.25;;;;;;;;;;5070645;28;20025;-62
2021/07/14 02:33:59;;;;;;;64.85;55.10;;;;;;;;;;5052857;28;20427;-63
2021/07/14 02:36:26;;;;;;;65.47;55.83;;;;;;;;;;5070615;28;20029;-62
2021/07/14 02:38:54;;;;;;;68.10;57.92;;;;;;;;;;5070833;28;20021;-62
2021/07/14 02:41:27;;;;;;;67.45;56.97;;;;;;;;;;5070931;28;20078;-61
2021/07/14 02:44:02;;;;;;;61.70;54.33;;;;;;;;;;5052998;28;20025;-62
2021/07/14 02:46:30;;;;;;;68.97;55.85;;;;;;;;;;5070716;28;20032;-62
2021/07/14 02:49:00;;;;;;;70.50;53.08;;;;;;;;;;5070909;28;20077;-63
2021/07/14 02:51:28;;;;;;;65.28;54.42;;;;;;;;;;5070869;28;20025;-62
2021/07/14 02:53:54;;;;;;;;;;;;;;;;;;5071074;28;20364;-63
2021/07/14 02:56:21;;;;;;;70.43;55.72;;;;;;;;;;5070442;28;19905;-63
2021/07/14 02:58:56;;;;;;;69.97;55.67;;;;;;;;;;5070727;28;20078;-62
2021/07/14 03:01:22;;;;;;;70.03;56.22;;;;;;;;;;5052771;28;20124;-62
2021/07/14 03:03:49;;;;;;;64.32;54.13;;;;;;;;;;5070616;28;20051;-63
2021/07/14 03:06:15;;;;;;;65.82;55.58;;;;;;;;;;5052491;28;20032;-62
2021/07/14 03:08:45;;;;;;;68.13;55.42;;;;;;;;;;5070639;28;20032;-60
2021/07/14 03:11:11;;;;;;;66.57;54.13;;;;;;;;;;5053497;28;20420;-62
2021/07/14 03:13:38;;;;;;;67.55;54.85;;;;;;;;;;5074757;28;20021;-62
2021/07/14 03:16:06;;;;;;;66.55;51.75;;;;;;;;;;5074103;28;20395;-63
2021/07/14 03:18:32;;;;;;;67.90;53.85;;;;;;;;;;5074697;28;20488;-63
2021/07/14 03:20:59;;;;;;;67.45;55.40;;;;;;;;;;5074193;28;20495;-61
2021/07/14 03:23:26;;;;;;;60.42;51.10;;;;;;;;;;5074477;28;20032;-62
2021/07/14 03:25:53;;;;;;;68.20;54.63;;;;;;;;;;5073972;28;20056;-61
2021/07/14 03:28:20;;;;;;;72.68;56.28;;;;;;;;;;5074125;28;20495;-63
2021/07/14 03:30:47;;;;;;;71.70;55.40;;;;;;;;;;5056062;28;20569;-62
2021/07/14 03:33:13;;;;;;;69.10;56.03;;;;;;;;;;5056438;28;20097;-62
2021/07/14 03:35:40;;;;;;;64.85;53.65;;;;;;;;;;5073739;28;20468;-60
2021/07/14 03:38:09;;;;;;;62.15;52.35;;;;;;;;;;5056055;28;20044;-62
2021/07/14 03:40:35;;;;;;;64.60;54.05;;;;;;;;;;5074110;28;20055;-62
2021/07/14 03:43:02;;;;;;;66.93;52.50;;;;;;;;;;5055966;28;20088;-61
2021/07/14 03:45:28;;;;;;;66.00;53.50;;;;;;;;;;5055744;28;20028;-62
2021/07/14 03:47:55;;;;;;;66.30;52.47;;;;;;;;;;5055939;28;20028;-61
2021/07/14 03:50:21;;;;;;;62.42;52.58;;;;;;;;;;5073757;28;20579;-62
2021/07/14 03:52:48;;;;;;;64.75;53.53;;;;;;;;;;5055660;28;20021;-62
2021/07/14 03:55:15;;;;;;;70.35;55.20;;;;;;;;;;5073425;28;20110;-61
2021/07/14 03:57:41;;;;;;;70.45;53.67;;;;;;;;;;5073401;28;20036;-62
2021/07/14 04:00:07;;;;;;;69.55;57.00;;;;;;;;;;5055840;28;20486;-61
2021/07/14 04:02:34;;;;;;;74.93;56.15;;;;;;;;;;5055592;28;20017;-62
2021/07/14 04:05:00;;;;;;;67.78;54.45;;;;;;;;;;5073606;28;20029;-61
2021/07/14 04:07:26;;;;;;;76.22;59.17;;;;;;;;;;5055184;28;20040;-62
2021/07/14 04:09:52;;;;;;;73.35;57.70;;;;;;;;;;5055414;28;20025;-62
2021/07/14 04:12:18;;;;;;;78.97;58.45;;;;;;;;;;5055489;28;20299;-62
2021/07/14 04:14:45;;;;;;;74.15;60.28;;;;;;;;;;5073381;28;20025;-62
2021/07/14 04:17:11;;;;;;;80.95;63.55;;;;;;;;;;5073217;28;20500;-63
2021/07/14 04:19:39;;;;;;;82.70;63.25;;;;;;;;;;5055408;28;20480;-62
2021/07/14 04:22:06;;;;;;;89.03;65.20;;;;;;;;;;5073383;28;20024;-63
2021/07/14 04:24:32;;;;;;;80.72;62.05;;;;;;;;;;5072513;28;20043;-62
2021/07/14 04:26:59;;;;;;;89.05;64.75;;;;;;;;;;5072874;28;20021;-62
2021/07/14 04:29:25;;;;;;;92.00;67.20;;;;;;;;;;5073328;28;20368;-62
2021/07/14 04:31:51;;;;;;;96.07;67.75;;;;;;;;;;5054931;28;20036;-61
2021/07/14 04:34:17;;;;;;;103.13;69.18;;;;;;;;;;5055475;28;20020;-60
2021/07/14 04:36:43;;;;;;;92.00;66.45;;;;;;;;;;5054964;28;20471;-61
2021/07/14 04:39:09;;;;;;;97.50;67.47;;;;;;;;;;5073255;28;20028;-62
2021/07/14 04:41:35;;;;;;;119.93;74.32;;;;;;;;;;5072972;28;20437;-61
2021/07/14 04:44:03;;;;;;;100.95;68.22;;;;;;;;;;5073076;28;20407;-62
2021/07/14 04:46:30;;;;;;;98.15;66.72;;;;;;;;;;5072694;28;20127;-63
2021/07/14 04:48:56;;;;;;;106.85;71.03;;;;;;;;;;5055032;28;20036;-63
2021/07/14 04:51:23;;;;;;;104.93;68.78;;;;;;;;;;5072818;28;20032;-62
2021/07/14 04:53:49;;;;;;;103.60;70.15;;;;;;;;;;5072818;28;20032;-62
2021/07/14 04:56:18;;;;;;;95.32;65.82;;;;;;;;;;5054182;28;20028;-62
2021/07/14 04:58:44;;;;;;;101.63;68.47;;;;;;;;;;5072614;28;20024;-61
2021/07/14 05:01:13;;;;;;;104.32;69.57;;;;;;;;;;5054520;28;20027;-62
2021/07/14 05:03:39;;;;;;;103.97;67.32;;;;;;;;;;5072447;28;20016;-63
2021/07/14 05:06:05;;;;;;;98.50;66.88;;;;;;;;;;5054074;28;20033;-62
2021/07/14 05:08:31;;;;;;;101.68;68.50;;;;;;;;;;5054529;28;20029;-62
2021/07/14 05:10:57;;;;;;;100.63;65.10;;;;;;;;;;5054885;28;20031;-61
2021/07/14 05:13:23;;;;;;;97.10;65.85;;;;;;;;;;5072371;28;20054;-62
2021/07/14 05:15:49;;;;;;;104.97;69.70;;;;;;;;;;5072061;28;20365;-61
2021/07/14 05:18:15;;;;;;;104.35;66.45;;;;;;;;;;5054099;28;20111;-60
2021/07/14 05:20:41;;;;;;;101.53;66.05;;;;;;;;;;5071729;28;20074;-61
2021/07/14 05:23:08;;;;;;;100.45;67.55;;;;;;;;;;5072167;28;20154;-62
2021/07/14 05:25:34;;;;;;;99.18;70.80;;;;;;;;;;5053984;28;20115;-63
2021/07/14 05:28:00;;;;;;;105.30;69.25;;;;;;;;;;5071960;28;20029;-63
2021/07/14 05:30:26;;;;;;;109.78;68.18;;;;;;;;;;5053625;28;20033;-60
2021/07/14 05:32:52;;;;;;;108.30;70.03;;;;;;;;;;5053859;28;20032;-60
2021/07/14 05:35:18;;;;;;;116.78;69.88;;;;;;;;;;5052573;28;20584;-62
2021/07/14 05:37:44;;;;;;;112.70;71.20;;;;;;;;;;5053736;28;20120;-63
2021/07/14 05:40:10;;;;;;;114.53;71.38;;;;;;;;;;5071896;28;20487;-63
2021/07/14 05:42:36;;;;;;;119.95;72.53;;;;;;;;;;5071675;28;20024;-63
2021/07/14 05:45:03;;;;;;;107.32;69.28;;;;;;;;;;5065335;28;20013;-63
2021/07/14 05:47:29;;;;;;;105.35;68.20;;;;;;;;;;5053036;28;20025;-63
2021/07/14 05:49:55;;;;;;;101.32;66.03;;;;;;;;;;5071385;28;20028;-62
2021/07/14 05:52:20;;;;;;;107.97;70.35;;;;;;;;;;5067221;28;20106;-64
2021/07/14 05:54:46;;;;;;;108.03;66.53;;;;;;;;;;5033005;28;20029;-64
2021/07/14 05:57:12;;;;;;;102.10;67.50;;;;;;;;;;5050904;28;20036;-64
2021/07/14 05:59:38;;;;;;;104.53;68.72;;;;;;;;;;5050874;28;20488;-65
2021/07/14 06:02:04;;;;;;;107.82;65.65;;;;;;;;;;5064302;28;20025;-65
2021/07/14 06:04:30;;;;;;;95.82;63.67;;;;;;;;;;5070844;28;20372;-62
2021/07/14 06:06:59;;;;;;;103.80;67.35;;;;;;;;;;5052397;28;20027;-62
2021/07/14 06:09:25;;;;;;;108.78;67.38;;;;;;;;;;5070885;28;20444;-62
2021/07/14 06:11:51;;;;;;;98.28;64.70;;;;;;;;;;5052803;28;20039;-63
2021/07/14 06:14:16;;;;;;;92.25;63.50;;;;;;;;;;5052725;28;20024;-63
2021/07/14 06:16:42;;;;;;;93.15;62.80;;;;;;;;;;5052711;28;20029;-63
2021/07/14 06:19:08;;;;;;;96.15;65.25;;;;;;;;;;5057368;28;20046;-63
2021/07/14 06:21:34;;;;;;;90.57;62.22;;;;;;;;;;5050782;28;20025;-62
2021/07/14 06:24:00;;;;;;;87.88;61.45;;;;;;;;;;5050878;28;20032;-62
2021/07/14 06:26:26;;;;;;;98.78;63.92;;;;;;;;;;5050556;28;20021;-62
2021/07/14 06:28:52;;;;;;;91.50;63.28;;;;;;;;;;5050667;28;20029;-62
2021/07/14 06:31:18;;;;;;;93.22;69.03;;;;;;;;;;5050365;28;20033;-63
2021/07/14 06:33:44;;;;;;;92.90;63.28;;;;;;;;;;5050714;28;20029;-62
2021/07/14 06:36:10;;;;;;;104.43;65.45;;;;;;;;;;5050379;28;20032;-63
2021/07/14 06:38:36;;;;;;;110.75;67.28;;;;;;;;;;5033101;28;20554;-62
2021/07/14 06:41:03;;;;;;;104.22;65.85;;;;;;;;;;5032648;28;20455;-63
2021/07/14 06:43:41;;;;;;;112.65;69.43;;;;;;;;;;5032940;28;20025;-63
2021/07/14 06:46:08;;;;;;;101.97;64.93;;;;;;;;;;5086051;28;20067;-63
2021/07/14 06:48:34;;;;;;;112.15;68.20;;;;;;;;;;5090672;28;20063;-63
2021/07/14 06:51:00;;;;;;;103.05;62.33;;;;;;;;;;5090704;28;20032;-63
2021/07/14 06:53:26;;;;;;;96.85;60.92;;;;;;;;;;5090613;28;20112;-62
2021/07/14 06:55:52;;;;;;;94.97;62.33;;;;;;;;;;5090180;28;20110;-62
2021/07/14 06:58:18;;;;;;;80.28;54.67;;;;;;;;;;5072324;28;20033;-62
2021/07/14 07:00:44;;;;;;;80.20;55.15;;;;;;;;;;5090717;28;20021;-62
2021/07/14 07:03:10;;;;;;;73.63;52.42;;;;;;;;;;5090651;28;20027;-62
2021/07/14 07:05:36;;;;;;;67.40;51.95;;;;;;;;;;5090170;28;20024;-60
2021/07/14 07:08:02;;;;;;;68.75;52.10;;;;;;;;;;5090414;28;20102;-62
2021/07/14 07:10:28;;;;;;;71.13;51.42;;;;;;;;;;5072413;28;20032;-62
2021/07/14 07:12:54;;;;;;;69.57;51.35;;;;;;;;;;5090441;28;20031;-62
2021/07/14 07:15:21;;;;;;;69.88;52.35;;;;;;;;;;5090355;28;20383;-63
2021/07/14 07:17:47;;;;;;;72.32;50.83;;;;;;;;;;5090330;28;20022;-63
2021/07/14 07:20:17;;;;;;;67.55;49.25;;;;;;;;;;5072460;28;20031;-62
2021/07/14 07:22:43;;;;;;;75.55;53.22;;;;;;;;;;5070188;28;20052;-62
2021/07/14 07:25:10;;;;;;;67.55;50.38;;;;;;;;;;5070219;28;20103;-61
2021/07/14 07:27:37;;;;;;;70.10;51.08;;;;;;;;;;5052362;28;20615;-62
2021/07/14 07:30:04;;;;;;;73.20;49.55;;;;;;;;;;5070285;28;20025;-62
2021/07/14 07:32:30;;;;;;;70.90;49.63;;;;;;;;;;5051855;28;20040;-63
2021/07/14 07:34:56;;;;;;;66.85;50.88;;;;;;;;;;5069835;28;20036;-63
2021/07/14 07:37:22;;;;;;;63.63;47.33;;;;;;;;;;5046022;28;20036;-62
2021/07/14 07:39:48;;;;;;;63.08;47.35;;;;;;;;;;5059974;28;20070;-64
2021/07/14 07:42:15;;;;;;;66.10;48.72;;;;;;;;;;5060047;28;20028;-63
2021/07/14 07:44:42;;;;;;;68.00;51.45;;;;;;;;;;5037502;28;20527;-65
2021/07/14 07:47:08;;;;;;;60.95;46.92;;;;;;;;;;5041581;28;20120;-63
2021/07/14 07:49:34;;;;;;;61.03;48.50;;;;;;;;;;5037288;28;20057;-62
2021/07/14 07:52:01;;;;;;;63.05;49.38;;;;;;;;;;5049640;28;20029;-62
2021/07/14 07:54:27;;;;;;;67.72;49.53;;;;;;;;;;5049574;28;20396;-61
2021/07/14 07:56:53;;;;;;;61.95;49.03;;;;;;;;;;5031276;28;20029;-61
2021/07/14 07:59:19;;;;;;;61.25;46.13;;;;;;;;;;5051686;28;20029;-62
2021/07/14 08:01:45;;;;;;;61.63;48.97;;;;;;;;;;5088306;22;20420;-61
2021/07/14 08:04:11;;;;;;;63.30;49.35;;;;;;;;;;5074606;28;20024;-63
2021/07/14 08:06:37;;;;;;;64.53;48.22;;;;;;;;;;5056194;28;20032;-62
2021/07/14 08:09:04;;;;;;;66.15;51.38;;;;;;;;;;5074419;28;20024;-62
2021/07/14 08:11:30;;;;;;;62.65;49.60;;;;;;;;;;5066924;28;20028;-61
2021/07/14 08:13:59;;;;;;;68.00;47.95;;;;;;;;;;5095647;28;20031;-62
2021/07/14 08:16:25;;;;;;;72.75;50.90;;;;;;;;;;5095527;28;20030;-63
2021/07/14 08:18:51;;;;;;;74.30;51.15;;;;;;;;;;5077331;28;20024;-62
2021/07/14 08:21:18;;;;;;;68.28;51.30;;;;;;;;;;5094664;28;20066;-63
2021/07/14 08:23:44;;;;;;;68.03;49.83;;;;;;;;;;5095161;28;20068;-63
2021/07/14 08:26:12;;;;;;;70.90;50.08;;;;;;;;;;5076377;28;20016;-63
2021/07/14 08:28:38;;;;;;;73.22;50.92;;;;;;;;;;5094489;28;20062;-63
2021/07/14 08:31:04;;;;;;;70.88;50.55;;;;;;;;;;5076311;28;20028;-62
2021/07/14 08:33:30;;;;;;;81.00;54.13;;;;;;;;;;5094701;28;20027;-62
2021/07/14 08:35:56;;;;;;;76.07;53.40;;;;;;;;;;5076214;28;20110;-63
2021/07/14 08:38:22;;;;;;;76.10;54.45;;;;;;;;;;5094371;28;20031;-63
2021/07/14 08:40:50;;;;;;;77.38;54.35;;;;;;;;;;5076175;28;20020;-62
2021/07/14 08:43:17;;;;;;;78.45;55.53;;;;;;;;;;5094539;28;20483;-63
2021/07/14 08:45:45;;;;;;;77.95;54.10;;;;;;;;;;5063814;28;20037;-62
2021/07/14 08:48:13;;;;;;;74.25;54.08;;;;;;;;;;5073857;28;20035;-62
2021/07/14 08:50:44;;;;;;;80.43;54.95;;;;;;;;;;5056506;28;20039;-62
2021/07/14 08:53:15;;;;;;;83.40;56.30;;;;;;;;;;5074354;28;20046;-62
2021/07/14 08:55:42;;;;;;;77.70;54.65;;;;;;;;;;5055747;28;20547;-63
2021/07/14 08:58:10;;;;;;;77.07;55.67;;;;;;;;;;5073894;28;20086;-63
2021/07/14 09:00:36;;;;;;;67.00;49.22;;;;;;;;;;5073099;28;20098;-64
2021/07/14 09:03:03;;;;;;;70.32;52.38;;;;;;;;;;5073410;28;20484;-63
2021/07/14 09:05:29;;;;;;;74.20;56.20;;;;;;;;;;5055298;28;20059;-63
2021/07/14 09:07:55;;;;;;;75.53;53.00;;;;;;;;;;5073123;28;20079;-64
2021/07/14 09:10:21;;;;;;;81.47;57.65;;;;;;;;;;5055231;28;20020;-63
2021/07/14 09:12:50;;;;;;;78.07;55.00;;;;;;;;;;5073904;28;20501;-62
2021/07/14 09:15:19;;;;;;;71.47;53.88;;;;;;;;;;5073767;28;20051;-62
2021/07/14 09:17:52;;;;;;;75.50;53.42;;;;;;;;;;5073478;28;20012;-63
2021/07/14 09:20:22;;;;;;;71.15;54.08;;;;;;;;;;5073236;28;20107;-63
2021/07/14 09:22:48;;;;;;;68.40;52.13;;;;;;;;;;5056158;28;20464;-63
2021/07/14 09:25:15;;;;;;;70.35;52.70;;;;;;;;;;5073103;28;20392;-63
2021/07/14 09:28:03;;;;;;;70.05;53.35;;;;;;;;;;5073235;28;20388;-63
2021/07/14 09:30:30;;;;;;;70.40;55.13;;;;;;;;;;5054673;28;20444;-63
2021/07/14 09:33:00;;;;;;;73.38;53.88;;;;;;;;;;5073387;28;20040;-64
2021/07/14 09:35:26;;;;;;;73.57;52.38;;;;;;;;;;5072597;28;20024;-64
2021/07/14 09:37:52;;;;;;;73.72;53.33;;;;;;;;;;5073459;28;20108;-71
2021/07/14 09:40:19;;;;;;;80.47;54.55;;;;;;;;;;5054776;28;20016;-67
2021/07/14 09:42:52;;;;;;;74.55;55.13;;;;;;;;;;5072849;28;20059;-62
2021/07/14 09:45:34;;;;;;;79.15;56.95;;;;;;;;;;5072248;28;20021;-62
2021/07/14 09:48:00;;;;;;;75.95;55.45;;;;;;;;;;5072309;28;20438;-62
2021/07/14 09:50:38;;;;;;;76.05;55.05;;;;;;;;;;5072537;28;20028;-59
2021/07/14 09:53:09;;;;;;;73.15;56.40;;;;;;;;;;5053918;28;20027;-62
2021/07/14 09:55:35;;;;;;;75.95;55.58;;;;;;;;;;5053924;28;20660;-63
2021/07/14 09:58:12;;;;;;;71.20;53.70;;;;;;;;;;5072431;28;20020;-60
2021/07/14 10:00:38;;;;;;;71.00;54.17;;;;;;;;;;5053995;28;20036;-62
2021/07/14 10:03:04;;;;;;;74.80;53.25;;;;;;;;;;5054372;28;20020;-62
2021/07/14 10:05:30;;;;;;;65.07;52.00;;;;;;;;;;5054225;28;20033;-63
2021/07/14 10:08:13;;;;;;;66.13;50.42;;;;;;;;;;5072115;28;20028;-62
2021/07/14 10:10:39;;;;;;;67.63;52.88;;;;;;;;;;5071927;28;20063;-63
2021/07/14 10:13:08;;;;;;;64.95;50.15;;;;;;;;;;5054074;28;20059;-63
2021/07/14 10:15:34;;;;;;;60.60;49.72;;;;;;;;;;5071929;28;20021;-59
2021/07/14 10:18:00;;;;;;;65.00;51.38;;;;;;;;;;5054043;28;20016;-63
2021/07/14 10:20:35;;;;;;;59.30;51.63;;;;;;;;;;5071930;28;20028;-63
2021/07/14 10:23:01;;;;;;;59.05;48.22;;;;;;;;;;5053917;28;20480;-63
2021/07/14 10:25:27;;;;;;;59.20;48.10;;;;;;;;;;5071780;28;20044;-62
2021/07/14 10:27:54;;;;;;;57.30;45.92;;;;;;;;;;5071786;28;20024;-63
2021/07/14 10:30:21;;;;;;;52.08;43.90;;;;;;;;;;5071243;28;20153;-60
2021/07/14 10:32:48;;;;;;;50.25;43.15;;;;;;;;;;5071728;28;20063;-63
2021/07/14 10:35:15;;;;;;;49.50;40.40;;;;;;;;;;5053859;28;20020;-63
2021/07/14 10:37:45;;;;;;;46.28;40.30;;;;;;;;;;5054100;28;20114;-63
2021/07/14 10:40:11;;;;;;;47.75;40.75;;;;;;;;;;5072042;28;20024;-62
2021/07/14 10:42:37;;;;;;;49.65;40.45;;;;;;;;;;5053816;28;20028;-63
2021/07/14 10:45:04;;;;;;;51.33;42.03;;;;;;;;;;5071618;28;20557;-63
2021/07/14 10:47:31;;;;;;;49.78;41.85;;;;;;;;;;5071537;28;20035;-62
2021/07/14 10:49:57;;;;;;;52.30;42.08;;;;;;;;;;5053783;28;20119;-63
2021/07/14 10:52:24;;;;;;;50.00;41.80;;;;;;;;;;5053784;28;20115;-64
2021/07/14 10:54:53;;;;;;;51.95;44.55;;;;;;;;;;5071250;28;20048;-61
2021/07/14 10:57:23;;;;;;;55.03;45.05;;;;;;;;;;5053095;28;20020;-62
2021/07/14 10:59:50;;;;;;;50.85;42.42;;;;;;;;;;5071707;28;20021;-63
2021/07/14 11:02:17;;;;;;;50.80;43.20;;;;;;;;;;5071592;28;20097;-63
2021/07/14 11:04:50;;;;;;;51.45;43.35;;;;;;;;;;5071689;28;20036;-62
2021/07/14 11:07:16;;;;;;;47.28;42.05;;;;;;;;;;5053698;28;20060;-63
2021/07/14 11:09:49;;;;;;;47.85;41.15;;;;;;;;;;5071525;28;20166;-63
2021/07/14 11:12:37;;;;;;;47.75;41.17;;;;;;;;;;5071744;28;20033;-62
2021/07/14 11:15:04;;;;;;;50.35;41.92;;;;;;;;;;5053428;28;20021;-63
2021/07/14 11:17:35;;;;;;;49.80;43.05;;;;;;;;;;5053089;28;20021;-63
2021/07/14 11:20:10;;;;;;;43.80;38.47;;;;;;;;;;5071580;28;20031;-62
2021/07/14 11:22:40;;;;;;;46.53;40.80;;;;;;;;;;5072577;28;20021;-62
2021/07/14 11:25:07;;;;;;;44.55;39.72;;;;;;;;;;5053882;28;20484;-63
2021/07/14 11:27:36;;;;;;;57.72;40.63;;;;;;;;;;5053678;28;20441;-63
2021/07/14 11:30:06;;;;;;;44.08;39.28;;;;;;;;;;5076466;28;20028;-64
2021/07/14 11:32:38;;;;;;;45.47;40.50;;;;;;;;;;5062862;28;20020;-63
2021/07/14 11:35:04;;;;;;;44.95;40.05;;;;;;;;;;5095378;28;20148;-63
2021/07/14 11:37:31;;;;;;;44.47;36.00;;;;;;;;;;5077372;28;20028;-63
2021/07/14 11:40:20;;;;;;;40.17;35.85;;;;;;;;;;5095247;28;20141;-59
2021/07/14 11:42:49;;;;;;;41.60;36.47;;;;;;;;;;5066735;28;20096;-64
2021/07/14 11:45:16;;;;;;;41.35;35.80;;;;;;;;;;5076881;28;20391;-63
2021/07/14 11:47:42;;;;;;;47.30;37.72;;;;;;;;;;5077483;28;20105;-62
2021/07/14 11:50:10;;;;;;;43.45;35.13;;;;;;;;;;5078272;28;20028;-62
2021/07/14 11:52:41;;;;;;;41.75;36.83;;;;;;;;;;5078177;28;20464;-61
2021/07/14 11:55:25;;;;;;;40.97;36.50;;;;;;;;;;5095934;28;20035;-62
2021/07/14 11:57:52;;;;;;;43.45;37.28;;;;;;;;;;5078145;28;20024;-62
2021/07/14 12:00:18;;;;;;;38.60;34.35;;;;;;;;;;5095994;28;20024;-63
2021/07/14 12:03:00;;;;;;;38.63;33.75;;;;;;;;;;5095626;28;20141;-63
2021/07/14 12:05:31;;;;;;;41.08;35.80;;;;;;;;;;5094701;28;20028;-63
2021/07/14 12:08:12;;;;;;;41.53;37.00;;;;;;;;;;5094704;28;20034;-63
2021/07/14 12:10:39;;;;;;;42.97;38.42;;;;;;;;;;5094946;28;20028;-64
2021/07/14 12:13:06;;;;;;;38.92;34.83;;;;;;;;;;5094837;28;20027;-64
2021/07/14 12:15:44;;;;;;;39.35;34.25;;;;;;;;;;5094115;28;20506;-64
2021/07/14 12:18:12;;;;;;;;;;;;;;;;;;5094433;28;20501;-64
2021/07/14 12:20:38;;;;;;;42.80;36.80;;;;;;;;;;5094387;28;19904;-64
2021/07/14 12:23:14;;;;;;;39.67;35.55;;;;;;;;;;5076424;28;20494;-64
2021/07/14 12:25:40;;;;;;;38.22;34.13;;;;;;;;;;5094288;28;20107;-61
2021/07/14 12:28:12;;;;;;;40.20;35.97;;;;;;;;;;5075739;28;20020;-64
2021/07/14 12:30:43;;;;;;;40.65;36.25;;;;;;;;;;5094163;28;20107;-61
2021/07/14 12:33:11;;;;;;;40.75;35.97;;;;;;;;;;5094197;28;20066;-64
2021/07/14 12:35:39;;;;;;;39.95;35.53;;;;;;;;;;5075276;28;20126;-63
2021/07/14 12:38:07;;;;;;;43.15;38.38;;;;;;;;;;5076137;28;20065;-64
2021/07/14 12:40:36;;;;;;;40.00;35.75;;;;;;;;;;5094326;28;20085;-63
2021/07/14 12:43:11;;;;;;;43.03;37.03;;;;;;;;;;5093577;28;20020;-65
2021/07/14 12:45:40;;;;;;;41.45;36.78;;;;;;;;;;5082611;28;20393;-64
2021/07/14 12:48:11;;;;;;;42.22;37.75;;;;;;;;;;5073910;28;20063;-62
2021/07/14 12:50:38;;;;;;;42.83;38.22;;;;;;;;;;5055723;28;20118;-64
2021/07/14 12:53:05;;;;;;;40.53;36.28;;;;;;;;;;5073872;28;20448;-62
2021/07/14 12:55:32;;;;;;;41.25;37.05;;;;;;;;;;5073964;28;20024;-65
2021/07/14 12:58:03;;;;;;;40.53;36.17;;;;;;;;;;5074207;28;20016;-63
2021/07/14 13:00:29;;;;;;;38.05;33.92;;;;;;;;;;5073673;28;20036;-64
2021/07/14 13:03:00;;;;;;;41.17;36.88;;;;;;;;;;5056107;28;20414;-64
2021/07/14 13:05:28;;;;;;;39.75;35.65;;;;;;;;;;5058320;28;20029;-64
2021/07/14 13:08:14;;;;;;;41.45;36.90;;;;;;;;;;5056344;28;20060;-65
2021/07/14 13:10:41;;;;;;;42.35;37.95;;;;;;;;;;5073268;28;20032;-63
2021/07/14 13:13:11;;;;;;;42.50;38.20;;;;;;;;;;5073396;28;20028;-65
2021/07/14 13:15:37;;;;;;;43.08;38.88;;;;;;;;;;5073408;28;20028;-64
2021/07/14 13:18:03;;;;;;;41.47;37.13;;;;;;;;;;5073713;28;20108;-64
2021/07/14 13:20:35;;;;;;;45.60;40.95;;;;;;;;;;5074187;28;20353;-64
2021/07/14 13:23:01;;;;;;;42.15;37.65;;;;;;;;;;5074795;28;20027;-65
2021/07/14 13:25:36;;;;;;;42.08;37.78;;;;;;;;;;5073004;28;20032;-65
2021/07/14 13:28:13;;;;;;;42.85;38.20;;;;;;;;;;5073450;28;20028;-65
2021/07/14 13:30:39;;;;;;;45.70;41.20;;;;;;;;;;5055295;28;20109;-62
2021/07/14 13:33:12;;;;;;;42.90;38.45;;;;;;;;;;5073386;28;20051;-63
2021/07/14 13:35:39;;;;;;;41.50;37.28;;;;;;;;;;5055475;28;20024;-64
2021/07/14 13:38:24;;;;;;;47.83;42.60;;;;;;;;;;5055308;28;20058;-64
2021/07/14 13:40:51;;;;;;;48.92;43.95;;;;;;;;;;5073475;28;20027;-63
2021/07/14 13:43:17;;;;;;;51.15;46.25;;;;;;;;;;5073232;28;20043;-63
2021/07/14 13:45:44;;;;;;;50.42;45.38;;;;;;;;;;5072977;28;20028;-64
2021/07/14 13:48:10;;;;;;;56.75;51.45;;;;;;;;;;5055023;28;20020;-63
2021/07/14 13:50:36;;;;;;;58.72;53.22;;;;;;;;;;5072516;28;20024;-63
2021/07/14 13:53:03;;;;;;;60.13;54.28;;;;;;;;;;5055404;28;20017;-64
2021/07/14 13:55:29;;;;;;;63.03;56.97;;;;;;;;;;5054028;28;20048;-64
2021/07/14 13:58:05;;;;;;;66.40;59.97;;;;;;;;;;5072905;28;20095;-67
2021/07/14 14:00:31;;;;;;;90.95;73.00;;;;;;;;;;5054796;28;20074;-59
2021/07/14 14:03:00;;;;;;;94.45;78.93;;;;;;;;;;5093499;22;20048;-66
2021/07/14 14:05:27;;;;;;;58.92;52.67;;;;;;;;;;5050488;28;20120;-63
2021/07/14 14:07:53;;;;;;;53.58;47.33;;;;;;;;;;5051680;28;20025;-65
2021/07/14 14:10:21;;;;;;;47.53;42.45;;;;;;;;;;5051804;28;20100;-64
2021/07/14 14:12:55;;;;;;;43.93;39.33;;;;;;;;;;5066360;28;20048;-63
2021/07/14 14:15:29;;;;;;;46.45;41.72;;;;;;;;;;5071579;28;20366;-65
2021/07/14 14:17:58;;;;;;;45.17;40.55;;;;;;;;;;5071339;28;20020;-65
2021/07/14 14:20:31;;;;;;;45.00;40.15;;;;;;;;;;5071483;28;20097;-64
2021/07/14 14:22:58;;;;;;;43.00;38.67;;;;;;;;;;5053307;28;20023;-64
2021/07/14 14:25:26;;;;;;;45.75;41.10;;;;;;;;;;5053750;28;20035;-65